Anchorage/Elmendorf AFB, Alaska
Current Conditions -  °F | °C
As of 10:33 AM on Monday 22 Dec 2014 (Local Time) from PAED Reporting Station
Overcast Overcast  
Wind Chill: 23°   Ceiling: 6000
Heat Index: 23°   Visibility: 10mi
Dew Point: 21°   Wind: 0mph
Humidity: 93%   Direction: NA
Pressure: 29.72"   Gusts: NA
Location:  61.25°N, 149.79°W
Report Text: PAED 221933Z 00000KT 10SM SCT014 OVC060 M05/M06 A2972
Loading
Personal Weather Stations






























Interactive Weather Map New forecast layout! Learn more

10-Day Weather Forecast

Advertisements
Track Severe Weather on mobile